sensor_id;sensor_type;location;lat;lon;timestamp;P1;durP1;ratioP1;P2;durP2;ratioP2
63016;SDS011;50274;45.640;11.756;2023-07-31T00:02:20;4.07;;;2.10;;
63016;SDS011;50274;45.640;11.756;2023-07-31T00:04:46;5.13;;;2.15;;
63016;SDS011;50274;45.640;11.756;2023-07-31T00:07:12;7.28;;;2.20;;
63016;SDS011;50274;45.640;11.756;2023-07-31T00:09:38;5.67;;;1.90;;
63016;SDS011;50274;45.640;11.756;2023-07-31T00:12:04;6.95;;;2.20;;
63016;SDS011;50274;45.640;11.756;2023-07-31T00:14:30;7.18;;;2.30;;
63016;SDS011;50274;45.640;11.756;2023-07-31T00:16:56;4.57;;;1.90;;
63016;SDS011;50274;45.640;11.756;2023-07-31T00:19:21;7.38;;;2.22;;
63016;SDS011;50274;45.640;11.756;2023-07-31T00:21:47;6.85;;;2.20;;
63016;SDS011;50274;45.640;11.756;2023-07-31T00:24:13;5.37;;;2.13;;
63016;SDS011;50274;45.640;11.756;2023-07-31T00:26:39;6.65;;;2.20;;
63016;SDS011;50274;45.640;11.756;2023-07-31T00:29:05;5.85;;;2.00;;
63016;SDS011;50274;45.640;11.756;2023-07-31T00:31:31;4.60;;;2.07;;
63016;SDS011;50274;45.640;11.756;2023-07-31T00:33:57;5.32;;;1.85;;
63016;SDS011;50274;45.640;11.756;2023-07-31T00:36:22;5.43;;;2.25;;
63016;SDS011;50274;45.640;11.756;2023-07-31T00:38:48;4.83;;;2.17;;
63016;SDS011;50274;45.640;11.756;2023-07-31T00:41:14;4.43;;;2.00;;
63016;SDS011;50274;45.640;11.756;2023-07-31T00:43:40;5.05;;;2.20;;
63016;SDS011;50274;45.640;11.756;2023-07-31T00:46:06;5.47;;;2.13;;
63016;SDS011;50274;45.640;11.756;2023-07-31T00:48:32;5.88;;;2.20;;
63016;SDS011;50274;45.640;11.756;2023-07-31T00:50:59;5.15;;;2.00;;
63016;SDS011;50274;45.640;11.756;2023-07-31T00:53:26;6.30;;;2.47;;
63016;SDS011;50274;45.640;11.756;2023-07-31T00:55:53;4.75;;;2.30;;
63016;SDS011;50274;45.640;11.756;2023-07-31T00:58:19;7.17;;;2.40;;
63016;SDS011;50274;45.640;11.756;2023-07-31T01:00:45;5.47;;;2.33;;
63016;SDS011;50274;45.640;11.756;2023-07-31T01:03:11;7.28;;;2.05;;
63016;SDS011;50274;45.640;11.756;2023-07-31T01:05:56;4.50;;;2.07;;
63016;SDS011;50274;45.640;11.756;2023-07-31T01:11:05;5.07;;;2.30;;
63016;SDS011;50274;45.640;11.756;2023-07-31T01:13:39;4.10;;;2.30;;
63016;SDS011;50274;45.640;11.756;2023-07-31T01:16:05;7.20;;;2.35;;
63016;SDS011;50274;45.640;11.756;2023-07-31T01:18:31;6.13;;;2.30;;
63016;SDS011;50274;45.640;11.756;2023-07-31T01:26:23;4.88;;;1.90;;
63016;SDS011;50274;45.640;11.756;2023-07-31T01:29:09;5.63;;;2.00;;
63016;SDS011;50274;45.640;11.756;2023-07-31T01:31:40;5.00;;;1.98;;
63016;SDS011;50274;45.640;11.756;2023-07-31T01:34:11;8.88;;;2.40;;
63016;SDS011;50274;45.640;11.756;2023-07-31T01:36:39;5.32;;;2.40;;
63016;SDS011;50274;45.640;11.756;2023-07-31T01:39:05;5.17;;;2.47;;
63016;SDS011;50274;45.640;11.756;2023-07-31T01:41:31;8.00;;;2.60;;
63016;SDS011;50274;45.640;11.756;2023-07-31T01:43:56;5.63;;;2.33;;
63016;SDS011;50274;45.640;11.756;2023-07-31T01:46:22;6.03;;;2.95;;
63016;SDS011;50274;45.640;11.756;2023-07-31T01:48:48;7.27;;;2.70;;
63016;SDS011;50274;45.640;11.756;2023-07-31T01:51:14;6.78;;;2.60;;
63016;SDS011;50274;45.640;11.756;2023-07-31T01:53:40;8.35;;;3.00;;
63016;SDS011;50274;45.640;11.756;2023-07-31T01:56:06;5.97;;;2.83;;
63016;SDS011;50274;45.640;11.756;2023-07-31T01:58:31;6.15;;;3.00;;
63016;SDS011;50274;45.640;11.756;2023-07-31T02:00:57;6.07;;;2.67;;
63016;SDS011;50274;45.640;11.756;2023-07-31T02:03:23;5.45;;;2.60;;
63016;SDS011;50274;45.640;11.756;2023-07-31T02:05:49;5.25;;;3.03;;
63016;SDS011;50274;45.640;11.756;2023-07-31T02:08:15;5.70;;;2.63;;
63016;SDS011;50274;45.640;11.756;2023-07-31T02:10:42;5.17;;;2.90;;
63016;SDS011;50274;45.640;11.756;2023-07-31T02:13:08;5.38;;;2.72;;
63016;SDS011;50274;45.640;11.756;2023-07-31T02:15:34;5.32;;;2.88;;
63016;SDS011;50274;45.640;11.756;2023-07-31T02:18:00;6.22;;;2.53;;
63016;SDS011;50274;45.640;11.756;2023-07-31T02:20:26;4.43;;;2.53;;
63016;SDS011;50274;45.640;11.756;2023-07-31T02:22:51;7.10;;;3.00;;
63016;SDS011;50274;45.640;11.756;2023-07-31T02:25:17;5.10;;;2.72;;
63016;SDS011;50274;45.640;11.756;2023-07-31T02:27:43;6.20;;;3.00;;
63016;SDS011;50274;45.640;11.756;2023-07-31T02:30:09;5.67;;;2.80;;
63016;SDS011;50274;45.640;11.756;2023-07-31T02:32:38;4.65;;;3.00;;
63016;SDS011;50274;45.640;11.756;2023-07-31T02:35:04;6.45;;;2.92;;
63016;SDS011;50274;45.640;11.756;2023-07-31T02:37:30;6.07;;;2.60;;
63016;SDS011;50274;45.640;11.756;2023-07-31T02:40:08;5.17;;;2.80;;
63016;SDS011;50274;45.640;11.756;2023-07-31T02:43:18;5.53;;;2.40;;
63016;SDS011;50274;45.640;11.756;2023-07-31T02:46:14;6.13;;;2.78;;
63016;SDS011;50274;45.640;11.756;2023-07-31T02:49:14;5.10;;;2.58;;
63016;SDS011;50274;45.640;11.756;2023-07-31T02:52:28;5.93;;;2.80;;
63016;SDS011;50274;45.640;11.756;2023-07-31T02:55:17;7.53;;;2.60;;
63016;SDS011;50274;45.640;11.756;2023-07-31T02:57:43;5.30;;;2.83;;
63016;SDS011;50274;45.640;11.756;2023-07-31T03:00:09;5.97;;;2.78;;
63016;SDS011;50274;45.640;11.756;2023-07-31T03:02:35;5.32;;;2.80;;
63016;SDS011;50274;45.640;11.756;2023-07-31T03:05:01;5.07;;;2.83;;
63016;SDS011;50274;45.640;11.756;2023-07-31T03:07:27;6.07;;;2.65;;
63016;SDS011;50274;45.640;11.756;2023-07-31T03:09:55;6.30;;;2.78;;
63016;SDS011;50274;45.640;11.756;2023-07-31T03:12:21;4.65;;;2.50;;
63016;SDS011;50274;45.640;11.756;2023-07-31T03:14:47;5.43;;;2.87;;
63016;SDS011;50274;45.640;11.756;2023-07-31T03:17:13;5.53;;;2.97;;
63016;SDS011;50274;45.640;11.756;2023-07-31T03:19:39;6.43;;;2.97;;
63016;SDS011;50274;45.640;11.756;2023-07-31T03:22:05;5.87;;;2.73;;
63016;SDS011;50274;45.640;11.756;2023-07-31T03:24:31;4.97;;;2.78;;
63016;SDS011;50274;45.640;11.756;2023-07-31T03:26:56;4.85;;;2.97;;
63016;SDS011;50274;45.640;11.756;2023-07-31T03:29:22;6.60;;;3.00;;
63016;SDS011;50274;45.640;11.756;2023-07-31T03:31:48;5.57;;;2.87;;
63016;SDS011;50274;45.640;11.756;2023-07-31T03:34:14;5.43;;;2.63;;
63016;SDS011;50274;45.640;11.756;2023-07-31T03:36:40;9.00;;;3.40;;
63016;SDS011;50274;45.640;11.756;2023-07-31T03:39:06;6.17;;;2.97;;
63016;SDS011;50274;45.640;11.756;2023-07-31T03:41:32;6.05;;;2.92;;
63016;SDS011;50274;45.640;11.756;2023-07-31T03:43:57;4.75;;;2.72;;
63016;SDS011;50274;45.640;11.756;2023-07-31T03:46:23;5.50;;;3.20;;
63016;SDS011;50274;45.640;11.756;2023-07-31T03:48:50;5.78;;;2.97;;
63016;SDS011;50274;45.640;11.756;2023-07-31T03:51:18;6.18;;;2.88;;
63016;SDS011;50274;45.640;11.756;2023-07-31T03:53:44;5.72;;;2.90;;
63016;SDS011;50274;45.640;11.756;2023-07-31T03:56:10;5.33;;;3.13;;
63016;SDS011;50274;45.640;11.756;2023-07-31T03:58:36;6.13;;;3.22;;
63016;SDS011;50274;45.640;11.756;2023-07-31T04:01:02;4.95;;;3.00;;
63016;SDS011;50274;45.640;11.756;2023-07-31T04:03:29;5.68;;;2.63;;
63016;SDS011;50274;45.640;11.756;2023-07-31T04:05:55;6.47;;;3.07;;
63016;SDS011;50274;45.640;11.756;2023-07-31T04:08:21;6.60;;;3.05;;
63016;SDS011;50274;45.640;11.756;2023-07-31T04:10:47;5.88;;;3.25;;
63016;SDS011;50274;45.640;11.756;2023-07-31T04:13:13;5.30;;;3.05;;
63016;SDS011;50274;45.640;11.756;2023-07-31T04:15:39;6.18;;;2.90;;
63016;SDS011;50274;45.640;11.756;2023-07-31T04:18:05;6.43;;;2.97;;
63016;SDS011;50274;45.640;11.756;2023-07-31T04:20:31;4.78;;;2.42;;
63016;SDS011;50274;45.640;11.756;2023-07-31T04:22:57;6.95;;;2.63;;
63016;SDS011;50274;45.640;11.756;2023-07-31T04:25:23;5.30;;;3.15;;
63016;SDS011;50274;45.640;11.756;2023-07-31T04:27:49;4.87;;;2.60;;
63016;SDS011;50274;45.640;11.756;2023-07-31T04:30:15;5.18;;;2.83;;
63016;SDS011;50274;45.640;11.756;2023-07-31T04:32:41;4.65;;;2.75;;
63016;SDS011;50274;45.640;11.756;2023-07-31T04:35:07;6.70;;;3.10;;
63016;SDS011;50274;45.640;11.756;2023-07-31T04:37:33;4.60;;;2.67;;
63016;SDS011;50274;45.640;11.756;2023-07-31T04:39:59;4.38;;;2.63;;
63016;SDS011;50274;45.640;11.756;2023-07-31T04:42:25;4.50;;;2.78;;
63016;SDS011;50274;45.640;11.756;2023-07-31T04:44:51;6.85;;;2.60;;
63016;SDS011;50274;45.640;11.756;2023-07-31T04:47:19;4.90;;;2.50;;
63016;SDS011;50274;45.640;11.756;2023-07-31T04:49:45;5.32;;;2.55;;
63016;SDS011;50274;45.640;11.756;2023-07-31T04:52:11;5.30;;;2.42;;
63016;SDS011;50274;45.640;11.756;2023-07-31T04:54:37;4.73;;;2.37;;
63016;SDS011;50274;45.640;11.756;2023-07-31T04:57:03;4.88;;;2.47;;
63016;SDS011;50274;45.640;11.756;2023-07-31T04:59:30;4.40;;;2.20;;
63016;SDS011;50274;45.640;11.756;2023-07-31T05:01:56;4.05;;;2.33;;
63016;SDS011;50274;45.640;11.756;2023-07-31T05:04:22;4.83;;;2.37;;
63016;SDS011;50274;45.640;11.756;2023-07-31T05:06:50;4.40;;;2.22;;
63016;SDS011;50274;45.640;11.756;2023-07-31T05:09:16;7.15;;;2.45;;
63016;SDS011;50274;45.640;11.756;2023-07-31T05:11:45;4.22;;;2.15;;
63016;SDS011;50274;45.640;11.756;2023-07-31T05:14:10;6.83;;;2.27;;
63016;SDS011;50274;45.640;11.756;2023-07-31T05:16:36;6.75;;;2.40;;
63016;SDS011;50274;45.640;11.756;2023-07-31T05:19:02;5.37;;;2.10;;
63016;SDS011;50274;45.640;11.756;2023-07-31T05:21:28;4.30;;;2.40;;
63016;SDS011;50274;45.640;11.756;2023-07-31T05:23:54;4.03;;;2.10;;
63016;SDS011;50274;45.640;11.756;2023-07-31T05:26:20;6.07;;;2.40;;
63016;SDS011;50274;45.640;11.756;2023-07-31T05:28:45;5.40;;;2.13;;
63016;SDS011;50274;45.640;11.756;2023-07-31T05:31:11;4.90;;;2.70;;
63016;SDS011;50274;45.640;11.756;2023-07-31T05:33:37;4.27;;;2.30;;
63016;SDS011;50274;45.640;11.756;2023-07-31T05:36:03;4.75;;;2.03;;
63016;SDS011;50274;45.640;11.756;2023-07-31T05:38:29;4.20;;;2.03;;
63016;SDS011;50274;45.640;11.756;2023-07-31T05:40:55;3.92;;;2.13;;
63016;SDS011;50274;45.640;11.756;2023-07-31T05:43:21;5.90;;;2.47;;
63016;SDS011;50274;45.640;11.756;2023-07-31T05:45:47;3.95;;;2.00;;
63016;SDS011;50274;45.640;11.756;2023-07-31T05:48:12;5.50;;;2.47;;
63016;SDS011;50274;45.640;11.756;2023-07-31T05:50:38;4.73;;;2.30;;
63016;SDS011;50274;45.640;11.756;2023-07-31T05:53:05;4.93;;;2.47;;
63016;SDS011;50274;45.640;11.756;2023-07-31T05:55:31;5.80;;;2.30;;
63016;SDS011;50274;45.640;11.756;2023-07-31T05:57:57;5.20;;;2.38;;
63016;SDS011;50274;45.640;11.756;2023-07-31T06:00:23;4.90;;;2.13;;
63016;SDS011;50274;45.640;11.756;2023-07-31T06:02:52;3.80;;;1.90;;
63016;SDS011;50274;45.640;11.756;2023-07-31T06:05:18;4.40;;;2.08;;
63016;SDS011;50274;45.640;11.756;2023-07-31T06:07:44;4.32;;;1.90;;
63016;SDS011;50274;45.640;11.756;2023-07-31T06:10:10;4.00;;;1.80;;
63016;SDS011;50274;45.640;11.756;2023-07-31T06:12:36;4.05;;;1.83;;
63016;SDS011;50274;45.640;11.756;2023-07-31T06:15:02;4.15;;;2.15;;
63016;SDS011;50274;45.640;11.756;2023-07-31T06:17:29;5.15;;;1.90;;
63016;SDS011;50274;45.640;11.756;2023-07-31T06:19:55;4.93;;;1.90;;
63016;SDS011;50274;45.640;11.756;2023-07-31T06:22:21;4.50;;;2.10;;
63016;SDS011;50274;45.640;11.756;2023-07-31T06:24:47;3.92;;;1.98;;
63016;SDS011;50274;45.640;11.756;2023-07-31T06:27:13;4.43;;;1.40;;
63016;SDS011;50274;45.640;11.756;2023-07-31T06:29:39;4.00;;;1.90;;
63016;SDS011;50274;45.640;11.756;2023-07-31T06:32:05;4.13;;;2.10;;
63016;SDS011;50274;45.640;11.756;2023-07-31T06:34:31;4.47;;;1.90;;
63016;SDS011;50274;45.640;11.756;2023-07-31T06:36:57;5.60;;;1.90;;
63016;SDS011;50274;45.640;11.756;2023-07-31T06:39:23;4.32;;;1.80;;
63016;SDS011;50274;45.640;11.756;2023-07-31T06:41:49;4.37;;;1.50;;
63016;SDS011;50274;45.640;11.756;2023-07-31T06:44:15;3.60;;;1.37;;
63016;SDS011;50274;45.640;11.756;2023-07-31T06:46:43;4.00;;;1.40;;
63016;SDS011;50274;45.640;11.756;2023-07-31T06:49:11;4.65;;;1.50;;
63016;SDS011;50274;45.640;11.756;2023-07-31T06:51:40;3.88;;;1.60;;
63016;SDS011;50274;45.640;11.756;2023-07-31T06:54:08;3.40;;;1.20;;
63016;SDS011;50274;45.640;11.756;2023-07-31T06:56:34;4.37;;;1.47;;
63016;SDS011;50274;45.640;11.756;2023-07-31T06:59:00;3.80;;;1.38;;
63016;SDS011;50274;45.640;11.756;2023-07-31T07:01:26;3.60;;;1.33;;
63016;SDS011;50274;45.640;11.756;2023-07-31T07:03:55;4.00;;;1.30;;
63016;SDS011;50274;45.640;11.756;2023-07-31T07:06:23;3.28;;;1.10;;
63016;SDS011;50274;45.640;11.756;2023-07-31T07:08:49;4.50;;;1.40;;
63016;SDS011;50274;45.640;11.756;2023-07-31T07:11:14;3.72;;;1.10;;
63016;SDS011;50274;45.640;11.756;2023-07-31T07:13:40;4.93;;;1.15;;
63016;SDS011;50274;45.640;11.756;2023-07-31T07:16:06;4.33;;;1.20;;
63016;SDS011;50274;45.640;11.756;2023-07-31T07:18:32;4.32;;;1.08;;
63016;SDS011;50274;45.640;11.756;2023-07-31T07:20:58;5.75;;;1.30;;
63016;SDS011;50274;45.640;11.756;2023-07-31T07:23:26;5.77;;;1.30;;
63016;SDS011;50274;45.640;11.756;2023-07-31T07:25:55;4.68;;;1.20;;
63016;SDS011;50274;45.640;11.756;2023-07-31T07:28:21;3.42;;;1.00;;
63016;SDS011;50274;45.640;11.756;2023-07-31T07:30:54;3.50;;;1.10;;
63016;SDS011;50274;45.640;11.756;2023-07-31T07:33:20;4.30;;;1.40;;
63016;SDS011;50274;45.640;11.756;2023-07-31T07:35:45;3.80;;;1.30;;
63016;SDS011;50274;45.640;11.756;2023-07-31T07:38:13;3.65;;;1.23;;
63016;SDS011;50274;45.640;11.756;2023-07-31T07:40:40;5.07;;;1.23;;
63016;SDS011;50274;45.640;11.756;2023-07-31T07:43:06;3.33;;;1.02;;
63016;SDS011;50274;45.640;11.756;2023-07-31T07:45:32;3.38;;;1.10;;
63016;SDS011;50274;45.640;11.756;2023-07-31T07:47:58;3.33;;;1.20;;
63016;SDS011;50274;45.640;11.756;2023-07-31T07:50:27;3.70;;;1.30;;
63016;SDS011;50274;45.640;11.756;2023-07-31T07:52:52;4.40;;;1.30;;
63016;SDS011;50274;45.640;11.756;2023-07-31T07:55:18;3.20;;;1.10;;
63016;SDS011;50274;45.640;11.756;2023-07-31T07:57:44;4.70;;;1.30;;
63016;SDS011;50274;45.640;11.756;2023-07-31T08:00:10;4.45;;;1.35;;
63016;SDS011;50274;45.640;11.756;2023-07-31T08:02:37;4.65;;;1.00;;
63016;SDS011;50274;45.640;11.756;2023-07-31T08:05:06;3.35;;;1.33;;
63016;SDS011;50274;45.640;11.756;2023-07-31T08:07:32;4.27;;;1.20;;
63016;SDS011;50274;45.640;11.756;2023-07-31T08:09:58;4.15;;;1.20;;
63016;SDS011;50274;45.640;11.756;2023-07-31T08:12:24;3.28;;;1.13;;
63016;SDS011;50274;45.640;11.756;2023-07-31T08:14:50;3.70;;;1.27;;
63016;SDS011;50274;45.640;11.756;2023-07-31T08:17:17;3.75;;;1.33;;
63016;SDS011;50274;45.640;11.756;2023-07-31T08:19:43;3.72;;;1.00;;
63016;SDS011;50274;45.640;11.756;2023-07-31T08:22:09;4.22;;;1.20;;
63016;SDS011;50274;45.640;11.756;2023-07-31T08:24:35;4.13;;;1.30;;
63016;SDS011;50274;45.640;11.756;2023-07-31T08:27:01;3.27;;;1.10;;
63016;SDS011;50274;45.640;11.756;2023-07-31T08:29:26;4.10;;;1.17;;
63016;SDS011;50274;45.640;11.756;2023-07-31T08:31:52;3.80;;;1.27;;
63016;SDS011;50274;45.640;11.756;2023-07-31T08:34:18;4.82;;;1.23;;
63016;SDS011;50274;45.640;11.756;2023-07-31T08:36:44;3.67;;;1.20;;
63016;SDS011;50274;45.640;11.756;2023-07-31T08:39:10;3.93;;;1.40;;
63016;SDS011;50274;45.640;11.756;2023-07-31T08:41:39;4.38;;;1.13;;
63016;SDS011;50274;45.640;11.756;2023-07-31T08:44:06;3.92;;;1.30;;
63016;SDS011;50274;45.640;11.756;2023-07-31T08:46:32;3.45;;;1.00;;
63016;SDS011;50274;45.640;11.756;2023-07-31T08:48:59;3.20;;;0.98;;
63016;SDS011;50274;45.640;11.756;2023-07-31T08:51:29;4.43;;;1.23;;
63016;SDS011;50274;45.640;11.756;2023-07-31T08:53:55;4.45;;;1.40;;
63016;SDS011;50274;45.640;11.756;2023-07-31T08:56:22;3.60;;;1.15;;
63016;SDS011;50274;45.640;11.756;2023-07-31T08:58:51;5.43;;;1.33;;
63016;SDS011;50274;45.640;11.756;2023-07-31T09:01:18;4.90;;;1.20;;
63016;SDS011;50274;45.640;11.756;2023-07-31T09:03:45;3.22;;;1.00;;
63016;SDS011;50274;45.640;11.756;2023-07-31T09:06:11;3.95;;;0.93;;
63016;SDS011;50274;45.640;11.756;2023-07-31T09:08:38;3.88;;;1.13;;
63016;SDS011;50274;45.640;11.756;2023-07-31T09:11:08;3.22;;;1.00;;
63016;SDS011;50274;45.640;11.756;2023-07-31T09:13:33;4.13;;;1.00;;
63016;SDS011;50274;45.640;11.756;2023-07-31T09:15:59;4.10;;;1.30;;
63016;SDS011;50274;45.640;11.756;2023-07-31T09:18:28;3.58;;;1.15;;
63016;SDS011;50274;45.640;11.756;2023-07-31T09:21:03;5.30;;;1.20;;
63016;SDS011;50274;45.640;11.756;2023-07-31T09:23:42;4.07;;;1.33;;
63016;SDS011;50274;45.640;11.756;2023-07-31T09:26:09;3.97;;;0.95;;
63016;SDS011;50274;45.640;11.756;2023-07-31T09:28:36;4.57;;;1.20;;
63016;SDS011;50274;45.640;11.756;2023-07-31T09:31:02;5.85;;;1.20;;
63016;SDS011;50274;45.640;11.756;2023-07-31T09:33:28;3.97;;;1.20;;
63016;SDS011;50274;45.640;11.756;2023-07-31T09:35:56;4.15;;;1.08;;
63016;SDS011;50274;45.640;11.756;2023-07-31T09:38:25;5.28;;;1.13;;
63016;SDS011;50274;45.640;11.756;2023-07-31T09:40:51;3.45;;;1.13;;
63016;SDS011;50274;45.640;11.756;2023-07-31T09:43:18;4.18;;;1.20;;
63016;SDS011;50274;45.640;11.756;2023-07-31T09:45:45;5.83;;;1.20;;
63016;SDS011;50274;45.640;11.756;2023-07-31T09:48:12;5.40;;;1.20;;
63016;SDS011;50274;45.640;11.756;2023-07-31T09:50:42;3.50;;;0.88;;
63016;SDS011;50274;45.640;11.756;2023-07-31T09:53:10;5.18;;;1.20;;
63016;SDS011;50274;45.640;11.756;2023-07-31T09:55:36;4.35;;;1.48;;
63016;SDS011;50274;45.640;11.756;2023-07-31T09:58:04;5.10;;;1.63;;
63016;SDS011;50274;45.640;11.756;2023-07-31T10:00:31;3.78;;;1.10;;
63016;SDS011;50274;45.640;11.756;2023-07-31T10:03:01;5.75;;;1.30;;
63016;SDS011;50274;45.640;11.756;2023-07-31T10:05:52;3.63;;;1.10;;
63016;SDS011;50274;45.640;11.756;2023-07-31T10:08:16;3.78;;;1.20;;
63016;SDS011;50274;45.640;11.756;2023-07-31T10:10:46;3.97;;;1.30;;
63016;SDS011;50274;45.640;11.756;2023-07-31T10:13:12;5.88;;;1.10;;
63016;SDS011;50274;45.640;11.756;2023-07-31T10:15:39;3.97;;;1.10;;
63016;SDS011;50274;45.640;11.756;2023-07-31T10:18:06;3.67;;;1.02;;
63016;SDS011;50274;45.640;11.756;2023-07-31T10:20:33;4.10;;;1.30;;
63016;SDS011;50274;45.640;11.756;2023-07-31T10:22:59;3.60;;;1.20;;
63016;SDS011;50274;45.640;11.756;2023-07-31T10:25:26;4.22;;;1.48;;
63016;SDS011;50274;45.640;11.756;2023-07-31T10:27:53;3.85;;;1.10;;
63016;SDS011;50274;45.640;11.756;2023-07-31T10:30:20;3.55;;;1.20;;
63016;SDS011;50274;45.640;11.756;2023-07-31T10:32:50;4.00;;;1.17;;
63016;SDS011;50274;45.640;11.756;2023-07-31T10:35:17;3.37;;;1.00;;
63016;SDS011;50274;45.640;11.756;2023-07-31T10:37:44;3.55;;;1.00;;
63016;SDS011;50274;45.640;11.756;2023-07-31T10:40:23;4.47;;;1.38;;
63016;SDS011;50274;45.640;11.756;2023-07-31T10:42:51;3.67;;;1.20;;
63016;SDS011;50274;45.640;11.756;2023-07-31T10:45:31;3.65;;;1.13;;
63016;SDS011;50274;45.640;11.756;2023-07-31T10:48:14;3.80;;;0.93;;
63016;SDS011;50274;45.640;11.756;2023-07-31T10:50:54;4.00;;;1.05;;
63016;SDS011;50274;45.640;11.756;2023-07-31T10:53:30;3.88;;;1.17;;
63016;SDS011;50274;45.640;11.756;2023-07-31T10:56:01;3.75;;;1.27;;
63016;SDS011;50274;45.640;11.756;2023-07-31T10:58:28;3.63;;;1.17;;
63016;SDS011;50274;45.640;11.756;2023-07-31T11:01:01;3.67;;;1.20;;
63016;SDS011;50274;45.640;11.756;2023-07-31T11:03:48;3.00;;;1.00;;
63016;SDS011;50274;45.640;11.756;2023-07-31T11:06:18;3.75;;;1.38;;
63016;SDS011;50274;45.640;11.756;2023-07-31T11:08:45;3.50;;;1.10;;
63016;SDS011;50274;45.640;11.756;2023-07-31T11:11:15;3.97;;;1.10;;
63016;SDS011;50274;45.640;11.756;2023-07-31T11:13:44;3.43;;;0.90;;
63016;SDS011;50274;45.640;11.756;2023-07-31T11:16:22;4.10;;;1.10;;
63016;SDS011;50274;45.640;11.756;2023-07-31T11:18:49;6.72;;;0.90;;
63016;SDS011;50274;45.640;11.756;2023-07-31T11:21:20;4.20;;;1.10;;
63016;SDS011;50274;45.640;11.756;2023-07-31T11:23:51;3.40;;;1.00;;
63016;SDS011;50274;45.640;11.756;2023-07-31T11:26:18;5.03;;;1.20;;
63016;SDS011;50274;45.640;11.756;2023-07-31T11:28:48;4.90;;;1.00;;
63016;SDS011;50274;45.640;11.756;2023-07-31T11:31:17;3.45;;;0.95;;
63016;SDS011;50274;45.640;11.756;2023-07-31T11:33:43;4.30;;;1.15;;
63016;SDS011;50274;45.640;11.756;2023-07-31T11:36:16;5.35;;;1.38;;
63016;SDS011;50274;45.640;11.756;2023-07-31T11:38:45;3.67;;;1.13;;
63016;SDS011;50274;45.640;11.756;2023-07-31T11:41:13;3.13;;;0.90;;
63016;SDS011;50274;45.640;11.756;2023-07-31T11:43:44;3.47;;;1.00;;
63016;SDS011;50274;45.640;11.756;2023-07-31T11:46:11;3.80;;;1.00;;
63016;SDS011;50274;45.640;11.756;2023-07-31T11:48:37;3.20;;;1.00;;
63016;SDS011;50274;45.640;11.756;2023-07-31T11:51:04;3.37;;;1.00;;
63016;SDS011;50274;45.640;11.756;2023-07-31T11:53:41;5.50;;;0.90;;
63016;SDS011;50274;45.640;11.756;2023-07-31T11:56:07;3.42;;;0.95;;
63016;SDS011;50274;45.640;11.756;2023-07-31T11:58:36;3.47;;;0.90;;
63016;SDS011;50274;45.640;11.756;2023-07-31T12:01:05;3.22;;;1.02;;
63016;SDS011;50274;45.640;11.756;2023-07-31T12:03:32;4.00;;;1.10;;
63016;SDS011;50274;45.640;11.756;2023-07-31T12:05:59;2.67;;;0.90;;
63016;SDS011;50274;45.640;11.756;2023-07-31T12:08:26;2.97;;;0.90;;
63016;SDS011;50274;45.640;11.756;2023-07-31T12:10:52;3.85;;;0.88;;
63016;SDS011;50274;45.640;11.756;2023-07-31T12:13:25;3.22;;;0.90;;
63016;SDS011;50274;45.640;11.756;2023-07-31T12:15:55;3.27;;;0.90;;
63016;SDS011;50274;45.640;11.756;2023-07-31T12:18:23;3.47;;;0.90;;
63016;SDS011;50274;45.640;11.756;2023-07-31T12:20:54;3.47;;;1.02;;
63016;SDS011;50274;45.640;11.756;2023-07-31T12:23:22;3.60;;;1.10;;
63016;SDS011;50274;45.640;11.756;2023-07-31T12:26:02;3.10;;;1.10;;
63016;SDS011;50274;45.640;11.756;2023-07-31T12:28:29;3.03;;;1.10;;
63016;SDS011;50274;45.640;11.756;2023-07-31T12:30:58;3.80;;;1.10;;
63016;SDS011;50274;45.640;11.756;2023-07-31T12:33:35;3.08;;;0.90;;
63016;SDS011;50274;45.640;11.756;2023-07-31T12:36:04;3.10;;;0.90;;
63016;SDS011;50274;45.640;11.756;2023-07-31T12:38:34;3.13;;;1.08;;
63016;SDS011;50274;45.640;11.756;2023-07-31T12:41:00;3.37;;;0.97;;
63016;SDS011;50274;45.640;11.756;2023-07-31T12:43:26;4.60;;;1.02;;
63016;SDS011;50274;45.640;11.756;2023-07-31T12:45:53;3.22;;;1.00;;
63016;SDS011;50274;45.640;11.756;2023-07-31T12:48:21;3.63;;;0.90;;
63016;SDS011;50274;45.640;11.756;2023-07-31T12:50:47;3.43;;;1.03;;
63016;SDS011;50274;45.640;11.756;2023-07-31T12:53:13;3.60;;;0.90;;
63016;SDS011;50274;45.640;11.756;2023-07-31T12:55:40;3.58;;;0.98;;
63016;SDS011;50274;45.640;11.756;2023-07-31T12:58:06;3.83;;;1.00;;
63016;SDS011;50274;45.640;11.756;2023-07-31T13:00:32;4.70;;;1.17;;
63016;SDS011;50274;45.640;11.756;2023-07-31T13:02:58;3.10;;;1.00;;
63016;SDS011;50274;45.640;11.756;2023-07-31T13:05:25;3.72;;;1.05;;
63016;SDS011;50274;45.640;11.756;2023-07-31T13:07:51;3.00;;;0.90;;
63016;SDS011;50274;45.640;11.756;2023-07-31T13:10:17;3.58;;;1.00;;
63016;SDS011;50274;45.640;11.756;2023-07-31T13:12:43;3.00;;;0.90;;
63016;SDS011;50274;45.640;11.756;2023-07-31T13:15:09;4.23;;;1.10;;
63016;SDS011;50274;45.640;11.756;2023-07-31T13:17:35;3.88;;;1.48;;
63016;SDS011;50274;45.640;11.756;2023-07-31T13:20:02;8.50;;;5.82;;
63016;SDS011;50274;45.640;11.756;2023-07-31T13:22:29;5.78;;;2.92;;
63016;SDS011;50274;45.640;11.756;2023-07-31T13:24:55;5.47;;;2.03;;
63016;SDS011;50274;45.640;11.756;2023-07-31T13:27:20;4.57;;;1.20;;
63016;SDS011;50274;45.640;11.756;2023-07-31T13:29:49;3.85;;;1.27;;
63016;SDS011;50274;45.640;11.756;2023-07-31T13:32:16;3.72;;;1.23;;
63016;SDS011;50274;45.640;11.756;2023-07-31T13:34:44;4.75;;;1.17;;
63016;SDS011;50274;45.640;11.756;2023-07-31T13:37:11;5.40;;;2.40;;
63016;SDS011;50274;45.640;11.756;2023-07-31T13:39:37;3.87;;;1.40;;
63016;SDS011;50274;45.640;11.756;2023-07-31T13:42:03;4.72;;;1.48;;
63016;SDS011;50274;45.640;11.756;2023-07-31T13:44:32;7.03;;;2.70;;
63016;SDS011;50274;45.640;11.756;2023-07-31T13:46:59;4.55;;;1.48;;
63016;SDS011;50274;45.640;11.756;2023-07-31T13:49:25;3.53;;;1.10;;
63016;SDS011;50274;45.640;11.756;2023-07-31T13:51:51;8.55;;;4.00;;
63016;SDS011;50274;45.640;11.756;2023-07-31T13:54:17;11.75;;;5.35;;
63016;SDS011;50274;45.640;11.756;2023-07-31T13:56:44;7.38;;;2.90;;
63016;SDS011;50274;45.640;11.756;2023-07-31T13:59:10;7.00;;;3.07;;
63016;SDS011;50274;45.640;11.756;2023-07-31T14:01:37;6.32;;;3.00;;
63016;SDS011;50274;45.640;11.756;2023-07-31T14:04:03;4.35;;;1.75;;
63016;SDS011;50274;45.640;11.756;2023-07-31T14:06:28;3.90;;;1.10;;
63016;SDS011;50274;45.640;11.756;2023-07-31T14:08:54;4.00;;;1.23;;
63016;SDS011;50274;45.640;11.756;2023-07-31T14:11:21;4.10;;;1.38;;
63016;SDS011;50274;45.640;11.756;2023-07-31T14:13:47;3.92;;;1.55;;
63016;SDS011;50274;45.640;11.756;2023-07-31T14:16:13;4.25;;;1.60;;
63016;SDS011;50274;45.640;11.756;2023-07-31T14:18:39;3.80;;;1.10;;
63016;SDS011;50274;45.640;11.756;2023-07-31T14:21:05;4.30;;;1.70;;
63016;SDS011;50274;45.640;11.756;2023-07-31T14:23:31;5.28;;;1.40;;
63016;SDS011;50274;45.640;11.756;2023-07-31T14:25:56;6.17;;;1.63;;
63016;SDS011;50274;45.640;11.756;2023-07-31T14:28:22;3.83;;;1.20;;
63016;SDS011;50274;45.640;11.756;2023-07-31T14:30:48;5.63;;;1.27;;
63016;SDS011;50274;45.640;11.756;2023-07-31T14:33:14;3.92;;;1.40;;
63016;SDS011;50274;45.640;11.756;2023-07-31T14:35:40;3.73;;;1.10;;
63016;SDS011;50274;45.640;11.756;2023-07-31T14:38:06;3.42;;;1.20;;
63016;SDS011;50274;45.640;11.756;2023-07-31T14:40:34;3.95;;;1.05;;
63016;SDS011;50274;45.640;11.756;2023-07-31T14:43:01;5.05;;;1.42;;
63016;SDS011;50274;45.640;11.756;2023-07-31T14:45:27;3.10;;;1.20;;